Park City, Utah
Current Conditions -  °F | °C
As of 5:35 PM on Sunday 21 Dec 2014 (Local Time) from K36U Reporting Station
Unknown Precip Unknown Precip  
Wind Chill: 32°   Ceiling: 4000
Heat Index: 36°   Visibility: 7mi
Dew Point: 36°   Wind: 5mph
Humidity: 100%   Direction: 320°NW
Pressure: 29.89"   Gusts: NA
Location:  40.66°N, 111.49°W
Report Text: K36U 220035Z AUTO 32004KT 7SM UP SCT025 BKN040 OVC046 02/02 A2989 RMK AO2
Loading
Personal Weather Stations






























Interactive Weather Map New forecast layout! Learn more

10-Day Weather Forecast

Advertisements
Track Severe Weather on mobile